Villa de Puerto Real, Puerto Rico
Current Conditions -  °F | °C
As of 9:53 AM on Tuesday 21 Oct 2014 (Local Time) from TJNR Reporting Station
Scattered Clouds Scattered Clouds  
Wind Chill: 86°   Ceiling: Unl
Heat Index: 95°   Visibility: 10mi
Dew Point: 75°   Wind: 8mph
Humidity: 70%   Direction: 90°E
Pressure: 30.01"   Gusts: NA
Location:  18.3304°N, 65.6573°W
Report Text: TJNR 211353Z AUTO 09007KT 10SM FEW030 SCT045 30/24 A3001 RMK AO2 SLP162 T03000239
Loading
Personal Weather Stations






























Interactive Weather Map
Tropical Storm Tracking
New forecast layout! Learn more

10-Day Weather Forecast

Advertisements
Track Severe Weather on mobile